sensor_id;sensor_type;location;lat;lon;timestamp;P1;durP1;ratioP1;P2;durP2;ratioP2
10293;SDS011;5192;50.328;7.610;2022-11-10T00:00:07;5.77;;;2.10;;
10293;SDS011;5192;50.328;7.610;2022-11-10T00:02:34;4.80;;;2.17;;
10293;SDS011;5192;50.328;7.610;2022-11-10T00:05:00;8.33;;;2.23;;
10293;SDS011;5192;50.328;7.610;2022-11-10T00:07:26;5.87;;;2.40;;
10293;SDS011;5192;50.328;7.610;2022-11-10T00:09:52;6.17;;;2.40;;
10293;SDS011;5192;50.328;7.610;2022-11-10T00:12:18;6.33;;;2.23;;
10293;SDS011;5192;50.328;7.610;2022-11-10T00:14:45;6.17;;;2.87;;
10293;SDS011;5192;50.328;7.610;2022-11-10T00:17:30;4.70;;;2.30;;
10293;SDS011;5192;50.328;7.610;2022-11-10T00:19:55;3.20;;;2.20;;
10293;SDS011;5192;50.328;7.610;2022-11-10T00:22:21;6.40;;;2.33;;
10293;SDS011;5192;50.328;7.610;2022-11-10T00:24:46;9.10;;;2.73;;
10293;SDS011;5192;50.328;7.610;2022-11-10T00:27:12;8.90;;;2.73;;
10293;SDS011;5192;50.328;7.610;2022-11-10T00:29:42;5.23;;;2.33;;
10293;SDS011;5192;50.328;7.610;2022-11-10T00:32:08;6.97;;;2.40;;
10293;SDS011;5192;50.328;7.610;2022-11-10T00:34:34;7.57;;;2.40;;
10293;SDS011;5192;50.328;7.610;2022-11-10T00:37:00;7.80;;;2.57;;
10293;SDS011;5192;50.328;7.610;2022-11-10T00:39:26;5.93;;;3.03;;
10293;SDS011;5192;50.328;7.610;2022-11-10T00:41:51;6.70;;;2.00;;
10293;SDS011;5192;50.328;7.610;2022-11-10T00:44:17;9.00;;;2.60;;
10293;SDS011;5192;50.328;7.610;2022-11-10T00:46:43;9.77;;;3.37;;
10293;SDS011;5192;50.328;7.610;2022-11-10T00:49:08;6.43;;;2.43;;
10293;SDS011;5192;50.328;7.610;2022-11-10T00:51:34;6.33;;;2.27;;
10293;SDS011;5192;50.328;7.610;2022-11-10T00:53:59;6.07;;;2.43;;
10293;SDS011;5192;50.328;7.610;2022-11-10T00:56:25;9.73;;;2.53;;
10293;SDS011;5192;50.328;7.610;2022-11-10T00:58:52;7.63;;;2.47;;
10293;SDS011;5192;50.328;7.610;2022-11-10T01:01:18;5.73;;;2.20;;
10293;SDS011;5192;50.328;7.610;2022-11-10T01:03:45;6.57;;;2.40;;
10293;SDS011;5192;50.328;7.610;2022-11-10T01:06:13;8.00;;;2.80;;
10293;SDS011;5192;50.328;7.610;2022-11-10T01:08:40;7.63;;;2.43;;
10293;SDS011;5192;50.328;7.610;2022-11-10T01:11:09;8.03;;;2.20;;
10293;SDS011;5192;50.328;7.610;2022-11-10T01:13:37;7.07;;;2.57;;
10293;SDS011;5192;50.328;7.610;2022-11-10T01:16:13;8.43;;;1.90;;
10293;SDS011;5192;50.328;7.610;2022-11-10T01:18:48;6.57;;;2.17;;
10293;SDS011;5192;50.328;7.610;2022-11-10T01:21:14;8.27;;;2.50;;
10293;SDS011;5192;50.328;7.610;2022-11-10T01:23:40;6.57;;;2.10;;
10293;SDS011;5192;50.328;7.610;2022-11-10T01:26:07;6.93;;;2.43;;
10293;SDS011;5192;50.328;7.610;2022-11-10T01:28:33;7.00;;;2.30;;
10293;SDS011;5192;50.328;7.610;2022-11-10T01:31:04;7.37;;;2.27;;
10293;SDS011;5192;50.328;7.610;2022-11-10T01:33:31;7.03;;;2.53;;
10293;SDS011;5192;50.328;7.610;2022-11-10T01:35:58;5.97;;;2.33;;
10293;SDS011;5192;50.328;7.610;2022-11-10T01:38:27;6.03;;;2.27;;
10293;SDS011;5192;50.328;7.610;2022-11-10T01:40:55;10.37;;;2.87;;
10293;SDS011;5192;50.328;7.610;2022-11-10T01:43:21;7.60;;;2.20;;
10293;SDS011;5192;50.328;7.610;2022-11-10T01:45:54;8.43;;;2.37;;
10293;SDS011;5192;50.328;7.610;2022-11-10T01:51:31;5.73;;;2.10;;
10293;SDS011;5192;50.328;7.610;2022-11-10T01:54:03;8.70;;;2.47;;
10293;SDS011;5192;50.328;7.610;2022-11-10T01:56:33;7.47;;;2.47;;
10293;SDS011;5192;50.328;7.610;2022-11-10T01:59:04;7.40;;;2.37;;
10293;SDS011;5192;50.328;7.610;2022-11-10T02:01:39;7.43;;;2.40;;
10293;SDS011;5192;50.328;7.610;2022-11-10T02:04:06;5.30;;;2.23;;
10293;SDS011;5192;50.328;7.610;2022-11-10T02:06:38;6.77;;;2.20;;
10293;SDS011;5192;50.328;7.610;2022-11-10T02:09:07;4.40;;;2.10;;
10293;SDS011;5192;50.328;7.610;2022-11-10T02:11:33;7.47;;;2.20;;
10293;SDS011;5192;50.328;7.610;2022-11-10T02:14:00;6.53;;;2.37;;
10293;SDS011;5192;50.328;7.610;2022-11-10T02:16:26;7.47;;;2.43;;
10293;SDS011;5192;50.328;7.610;2022-11-10T02:18:52;5.27;;;2.43;;
10293;SDS011;5192;50.328;7.610;2022-11-10T02:21:18;6.97;;;2.57;;
10293;SDS011;5192;50.328;7.610;2022-11-10T02:23:46;8.23;;;2.70;;
10293;SDS011;5192;50.328;7.610;2022-11-10T02:26:15;7.13;;;2.70;;
10293;SDS011;5192;50.328;7.610;2022-11-10T02:28:43;6.57;;;2.80;;
10293;SDS011;5192;50.328;7.610;2022-11-10T02:31:08;6.67;;;2.37;;
10293;SDS011;5192;50.328;7.610;2022-11-10T02:33:34;7.87;;;2.73;;
10293;SDS011;5192;50.328;7.610;2022-11-10T02:36:00;7.63;;;2.90;;
10293;SDS011;5192;50.328;7.610;2022-11-10T02:38:26;9.63;;;2.87;;
10293;SDS011;5192;50.328;7.610;2022-11-10T02:40:51;7.97;;;3.10;;
10293;SDS011;5192;50.328;7.610;2022-11-10T02:43:17;8.13;;;2.80;;
10293;SDS011;5192;50.328;7.610;2022-11-10T02:45:43;7.47;;;2.50;;
10293;SDS011;5192;50.328;7.610;2022-11-10T02:48:10;8.07;;;2.53;;
10293;SDS011;5192;50.328;7.610;2022-11-10T02:50:37;5.50;;;2.53;;
10293;SDS011;5192;50.328;7.610;2022-11-10T02:53:03;7.97;;;2.40;;
10293;SDS011;5192;50.328;7.610;2022-11-10T02:55:29;12.87;;;3.07;;
10293;SDS011;5192;50.328;7.610;2022-11-10T02:57:55;4.83;;;2.30;;
10293;SDS011;5192;50.328;7.610;2022-11-10T03:00:21;6.07;;;2.80;;
10293;SDS011;5192;50.328;7.610;2022-11-10T03:02:46;8.70;;;2.70;;
10293;SDS011;5192;50.328;7.610;2022-11-10T03:05:12;7.00;;;2.80;;
10293;SDS011;5192;50.328;7.610;2022-11-10T03:07:37;9.20;;;3.03;;
10293;SDS011;5192;50.328;7.610;2022-11-10T03:10:04;8.80;;;3.00;;
10293;SDS011;5192;50.328;7.610;2022-11-10T03:12:30;6.97;;;2.70;;
10293;SDS011;5192;50.328;7.610;2022-11-10T03:14:56;7.83;;;3.23;;
10293;SDS011;5192;50.328;7.610;2022-11-10T03:17:22;7.47;;;3.30;;
10293;SDS011;5192;50.328;7.610;2022-11-10T03:19:47;9.47;;;3.23;;
10293;SDS011;5192;50.328;7.610;2022-11-10T03:22:14;9.90;;;3.57;;
10293;SDS011;5192;50.328;7.610;2022-11-10T03:24:39;4.57;;;2.90;;
10293;SDS011;5192;50.328;7.610;2022-11-10T03:27:05;7.27;;;3.10;;
10293;SDS011;5192;50.328;7.610;2022-11-10T03:29:30;8.67;;;3.13;;
10293;SDS011;5192;50.328;7.610;2022-11-10T03:31:56;11.50;;;3.93;;
10293;SDS011;5192;50.328;7.610;2022-11-10T03:34:21;6.90;;;2.90;;
10293;SDS011;5192;50.328;7.610;2022-11-10T03:36:47;7.17;;;3.30;;
10293;SDS011;5192;50.328;7.610;2022-11-10T03:39:13;6.30;;;2.63;;
10293;SDS011;5192;50.328;7.610;2022-11-10T03:41:38;9.37;;;3.40;;
10293;SDS011;5192;50.328;7.610;2022-11-10T03:44:04;6.67;;;2.67;;
10293;SDS011;5192;50.328;7.610;2022-11-10T03:46:30;8.70;;;2.87;;
10293;SDS011;5192;50.328;7.610;2022-11-10T03:48:55;8.40;;;2.83;;
10293;SDS011;5192;50.328;7.610;2022-11-10T03:51:21;6.53;;;2.70;;
10293;SDS011;5192;50.328;7.610;2022-11-10T03:53:47;7.30;;;2.77;;
10293;SDS011;5192;50.328;7.610;2022-11-10T03:56:12;7.50;;;2.60;;
10293;SDS011;5192;50.328;7.610;2022-11-10T03:58:39;9.43;;;2.77;;
10293;SDS011;5192;50.328;7.610;2022-11-10T04:01:05;6.73;;;2.70;;
10293;SDS011;5192;50.328;7.610;2022-11-10T04:03:30;8.83;;;2.63;;
10293;SDS011;5192;50.328;7.610;2022-11-10T04:05:56;10.63;;;2.73;;
10293;SDS011;5192;50.328;7.610;2022-11-10T04:08:41;7.83;;;3.20;;
10293;SDS011;5192;50.328;7.610;2022-11-10T04:11:25;7.43;;;3.23;;
10293;SDS011;5192;50.328;7.610;2022-11-10T04:14:10;6.30;;;3.07;;
10293;SDS011;5192;50.328;7.610;2022-11-10T04:16:55;8.37;;;2.97;;
10293;SDS011;5192;50.328;7.610;2022-11-10T04:19:21;6.77;;;3.63;;
10293;SDS011;5192;50.328;7.610;2022-11-10T04:21:47;12.90;;;3.50;;
10293;SDS011;5192;50.328;7.610;2022-11-10T04:24:13;11.70;;;3.37;;
10293;SDS011;5192;50.328;7.610;2022-11-10T04:26:38;9.67;;;3.40;;
10293;SDS011;5192;50.328;7.610;2022-11-10T04:29:07;10.03;;;3.50;;
10293;SDS011;5192;50.328;7.610;2022-11-10T04:31:35;5.73;;;4.30;;
10293;SDS011;5192;50.328;7.610;2022-11-10T04:34:02;9.93;;;3.70;;
10293;SDS011;5192;50.328;7.610;2022-11-10T04:36:29;11.20;;;4.23;;
10293;SDS011;5192;50.328;7.610;2022-11-10T04:38:56;7.03;;;3.60;;
10293;SDS011;5192;50.328;7.610;2022-11-10T04:41:22;11.73;;;4.13;;
10293;SDS011;5192;50.328;7.610;2022-11-10T04:43:49;10.17;;;4.10;;
10293;SDS011;5192;50.328;7.610;2022-11-10T04:46:26;7.27;;;3.80;;
10293;SDS011;5192;50.328;7.610;2022-11-10T04:48:54;9.07;;;3.53;;
10293;SDS011;5192;50.328;7.610;2022-11-10T04:51:20;11.17;;;4.10;;
10293;SDS011;5192;50.328;7.610;2022-11-10T04:53:47;8.53;;;3.87;;
10293;SDS011;5192;50.328;7.610;2022-11-10T04:56:16;7.73;;;4.17;;
10293;SDS011;5192;50.328;7.610;2022-11-10T04:58:43;11.13;;;4.27;;
10293;SDS011;5192;50.328;7.610;2022-11-10T05:01:10;7.23;;;3.73;;
10293;SDS011;5192;50.328;7.610;2022-11-10T05:03:41;10.17;;;4.10;;
10293;SDS011;5192;50.328;7.610;2022-11-10T05:06:07;7.97;;;3.83;;
10293;SDS011;5192;50.328;7.610;2022-11-10T05:08:34;6.93;;;3.90;;
10293;SDS011;5192;50.328;7.610;2022-11-10T05:10:59;6.60;;;4.27;;
10293;SDS011;5192;50.328;7.610;2022-11-10T05:13:25;8.50;;;3.90;;
10293;SDS011;5192;50.328;7.610;2022-11-10T05:15:51;7.90;;;4.67;;
10293;SDS011;5192;50.328;7.610;2022-11-10T05:18:17;7.47;;;3.90;;
10293;SDS011;5192;50.328;7.610;2022-11-10T05:20:43;10.50;;;4.10;;
10293;SDS011;5192;50.328;7.610;2022-11-10T05:23:08;6.37;;;3.87;;
10293;SDS011;5192;50.328;7.610;2022-11-10T05:25:52;11.47;;;3.97;;
10293;SDS011;5192;50.328;7.610;2022-11-10T05:28:18;8.17;;;4.17;;
10293;SDS011;5192;50.328;7.610;2022-11-10T05:30:44;14.27;;;5.43;;
10293;SDS011;5192;50.328;7.610;2022-11-10T05:33:09;13.93;;;5.20;;
10293;SDS011;5192;50.328;7.610;2022-11-10T05:35:35;8.30;;;4.20;;
10293;SDS011;5192;50.328;7.610;2022-11-10T05:38:01;10.83;;;4.97;;
10293;SDS011;5192;50.328;7.610;2022-11-10T05:40:28;11.87;;;5.53;;
10293;SDS011;5192;50.328;7.610;2022-11-10T05:42:54;10.83;;;5.03;;
10293;SDS011;5192;50.328;7.610;2022-11-10T05:45:21;12.63;;;5.33;;
10293;SDS011;5192;50.328;7.610;2022-11-10T05:47:48;10.77;;;5.07;;
10293;SDS011;5192;50.328;7.610;2022-11-10T05:50:14;10.13;;;4.43;;
10293;SDS011;5192;50.328;7.610;2022-11-10T05:52:44;11.30;;;4.30;;
10293;SDS011;5192;50.328;7.610;2022-11-10T05:55:11;11.10;;;6.20;;
10293;SDS011;5192;50.328;7.610;2022-11-10T05:57:37;10.13;;;4.63;;
10293;SDS011;5192;50.328;7.610;2022-11-10T06:00:06;14.67;;;5.73;;
10293;SDS011;5192;50.328;7.610;2022-11-10T06:02:33;15.53;;;5.90;;
10293;SDS011;5192;50.328;7.610;2022-11-10T06:04:59;10.57;;;5.20;;
10293;SDS011;5192;50.328;7.610;2022-11-10T06:07:24;9.57;;;5.17;;
10293;SDS011;5192;50.328;7.610;2022-11-10T06:09:50;9.73;;;5.30;;
10293;SDS011;5192;50.328;7.610;2022-11-10T06:12:15;9.43;;;5.27;;
10293;SDS011;5192;50.328;7.610;2022-11-10T06:14:41;10.33;;;5.07;;
10293;SDS011;5192;50.328;7.610;2022-11-10T06:17:06;11.10;;;5.03;;
10293;SDS011;5192;50.328;7.610;2022-11-10T06:19:32;11.17;;;5.23;;
10293;SDS011;5192;50.328;7.610;2022-11-10T06:21:57;10.20;;;4.63;;
10293;SDS011;5192;50.328;7.610;2022-11-10T06:24:23;7.80;;;4.43;;
10293;SDS011;5192;50.328;7.610;2022-11-10T06:26:49;12.50;;;5.17;;
10293;SDS011;5192;50.328;7.610;2022-11-10T06:29:14;11.20;;;4.97;;
10293;SDS011;5192;50.328;7.610;2022-11-10T06:31:40;13.03;;;5.33;;
10293;SDS011;5192;50.328;7.610;2022-11-10T06:34:05;7.80;;;4.53;;
10293;SDS011;5192;50.328;7.610;2022-11-10T06:36:31;12.10;;;5.37;;
10293;SDS011;5192;50.328;7.610;2022-11-10T06:38:56;11.17;;;5.00;;
10293;SDS011;5192;50.328;7.610;2022-11-10T06:41:22;8.20;;;4.33;;
10293;SDS011;5192;50.328;7.610;2022-11-10T06:43:47;11.87;;;5.50;;
10293;SDS011;5192;50.328;7.610;2022-11-10T06:46:13;9.33;;;4.90;;
10293;SDS011;5192;50.328;7.610;2022-11-10T06:48:38;10.40;;;4.77;;
10293;SDS011;5192;50.328;7.610;2022-11-10T06:51:04;8.57;;;4.80;;
10293;SDS011;5192;50.328;7.610;2022-11-10T06:53:30;10.50;;;4.20;;
10293;SDS011;5192;50.328;7.610;2022-11-10T06:55:56;10.47;;;4.67;;
10293;SDS011;5192;50.328;7.610;2022-11-10T06:58:21;7.80;;;4.43;;
10293;SDS011;5192;50.328;7.610;2022-11-10T07:00:47;9.57;;;4.67;;
10293;SDS011;5192;50.328;7.610;2022-11-10T07:03:13;10.37;;;5.20;;
10293;SDS011;5192;50.328;7.610;2022-11-10T07:05:39;10.33;;;4.50;;
10293;SDS011;5192;50.328;7.610;2022-11-10T07:08:10;10.27;;;4.47;;
10293;SDS011;5192;50.328;7.610;2022-11-10T07:10:40;8.40;;;4.17;;
10293;SDS011;5192;50.328;7.610;2022-11-10T07:13:07;6.83;;;4.10;;
10293;SDS011;5192;50.328;7.610;2022-11-10T07:15:34;6.77;;;4.27;;
10293;SDS011;5192;50.328;7.610;2022-11-10T07:18:00;8.73;;;4.70;;
10293;SDS011;5192;50.328;7.610;2022-11-10T07:20:27;11.20;;;3.93;;
10293;SDS011;5192;50.328;7.610;2022-11-10T07:22:57;6.70;;;4.17;;
10293;SDS011;5192;50.328;7.610;2022-11-10T07:25:27;8.17;;;3.77;;
10293;SDS011;5192;50.328;7.610;2022-11-10T07:27:54;11.90;;;3.90;;
10293;SDS011;5192;50.328;7.610;2022-11-10T07:30:21;9.27;;;3.70;;
10293;SDS011;5192;50.328;7.610;2022-11-10T07:32:56;9.40;;;4.40;;
10293;SDS011;5192;50.328;7.610;2022-11-10T07:35:22;7.17;;;3.93;;
10293;SDS011;5192;50.328;7.610;2022-11-10T07:37:48;12.97;;;4.53;;
10293;SDS011;5192;50.328;7.610;2022-11-10T07:40:13;7.10;;;3.20;;
10293;SDS011;5192;50.328;7.610;2022-11-10T07:42:39;6.97;;;3.57;;
10293;SDS011;5192;50.328;7.610;2022-11-10T07:45:05;10.60;;;3.47;;
10293;SDS011;5192;50.328;7.610;2022-11-10T07:47:31;6.83;;;3.53;;
10293;SDS011;5192;50.328;7.610;2022-11-10T07:49:56;7.33;;;3.20;;
10293;SDS011;5192;50.328;7.610;2022-11-10T07:52:22;9.77;;;3.83;;
10293;SDS011;5192;50.328;7.610;2022-11-10T07:54:47;10.53;;;3.77;;
10293;SDS011;5192;50.328;7.610;2022-11-10T07:57:13;6.50;;;3.37;;
10293;SDS011;5192;50.328;7.610;2022-11-10T07:59:39;9.87;;;3.47;;
10293;SDS011;5192;50.328;7.610;2022-11-10T08:02:04;8.30;;;3.30;;
10293;SDS011;5192;50.328;7.610;2022-11-10T08:04:30;8.87;;;3.17;;
10293;SDS011;5192;50.328;7.610;2022-11-10T08:06:56;9.60;;;3.60;;
10293;SDS011;5192;50.328;7.610;2022-11-10T08:09:22;8.47;;;4.37;;
10293;SDS011;5192;50.328;7.610;2022-11-10T08:11:48;9.33;;;3.60;;
10293;SDS011;5192;50.328;7.610;2022-11-10T08:14:13;11.30;;;3.93;;
10293;SDS011;5192;50.328;7.610;2022-11-10T08:16:39;8.67;;;3.70;;
10293;SDS011;5192;50.328;7.610;2022-11-10T08:19:04;6.97;;;3.53;;
10293;SDS011;5192;50.328;7.610;2022-11-10T08:21:30;10.57;;;3.80;;
10293;SDS011;5192;50.328;7.610;2022-11-10T08:23:55;9.10;;;3.63;;
10293;SDS011;5192;50.328;7.610;2022-11-10T08:26:22;8.17;;;3.17;;
10293;SDS011;5192;50.328;7.610;2022-11-10T08:28:51;7.83;;;4.40;;
10293;SDS011;5192;50.328;7.610;2022-11-10T08:31:22;11.03;;;4.70;;
10293;SDS011;5192;50.328;7.610;2022-11-10T08:33:53;6.43;;;3.90;;
10293;SDS011;5192;50.328;7.610;2022-11-10T08:36:22;8.60;;;3.87;;
10293;SDS011;5192;50.328;7.610;2022-11-10T08:38:52;10.40;;;3.67;;
10293;SDS011;5192;50.328;7.610;2022-11-10T08:41:19;5.37;;;3.40;;
10293;SDS011;5192;50.328;7.610;2022-11-10T08:43:52;10.60;;;3.93;;
10293;SDS011;5192;50.328;7.610;2022-11-10T08:46:19;6.63;;;3.70;;
10293;SDS011;5192;50.328;7.610;2022-11-10T08:48:45;9.63;;;3.50;;
10293;SDS011;5192;50.328;7.610;2022-11-10T08:51:10;10.57;;;3.70;;
10293;SDS011;5192;50.328;7.610;2022-11-10T08:53:41;7.83;;;3.53;;
10293;SDS011;5192;50.328;7.610;2022-11-10T08:56:12;6.97;;;3.30;;
10293;SDS011;5192;50.328;7.610;2022-11-10T08:58:43;7.07;;;3.07;;
10293;SDS011;5192;50.328;7.610;2022-11-10T09:01:11;8.70;;;3.37;;
10293;SDS011;5192;50.328;7.610;2022-11-10T09:03:40;8.20;;;3.50;;
10293;SDS011;5192;50.328;7.610;2022-11-10T09:06:05;9.27;;;4.17;;
10293;SDS011;5192;50.328;7.610;2022-11-10T09:08:40;8.67;;;3.60;;
10293;SDS011;5192;50.328;7.610;2022-11-10T09:11:05;8.10;;;3.83;;
10293;SDS011;5192;50.328;7.610;2022-11-10T09:13:31;10.73;;;3.73;;
10293;SDS011;5192;50.328;7.610;2022-11-10T09:16:03;10.07;;;4.03;;
10293;SDS011;5192;50.328;7.610;2022-11-10T09:18:29;10.97;;;4.83;;
10293;SDS011;5192;50.328;7.610;2022-11-10T09:21:03;8.47;;;3.90;;
10293;SDS011;5192;50.328;7.610;2022-11-10T09:23:37;7.60;;;3.47;;
10293;SDS011;5192;50.328;7.610;2022-11-10T09:26:09;8.67;;;3.97;;
10293;SDS011;5192;50.328;7.610;2022-11-10T09:28:35;8.43;;;3.57;;
10293;SDS011;5192;50.328;7.610;2022-11-10T09:31:05;6.80;;;3.40;;
10293;SDS011;5192;50.328;7.610;2022-11-10T09:33:33;7.03;;;3.13;;
10293;SDS011;5192;50.328;7.610;2022-11-10T09:36:02;7.47;;;3.67;;
10293;SDS011;5192;50.328;7.610;2022-11-10T09:38:33;9.30;;;3.97;;
10293;SDS011;5192;50.328;7.610;2022-11-10T09:41:04;7.80;;;3.60;;
10293;SDS011;5192;50.328;7.610;2022-11-10T09:46:13;6.63;;;3.37;;
10293;SDS011;5192;50.328;7.610;2022-11-10T09:48:51;5.83;;;3.30;;
10293;SDS011;5192;50.328;7.610;2022-11-10T09:51:51;5.87;;;2.90;;
10293;SDS011;5192;50.328;7.610;2022-11-10T09:56:59;6.67;;;3.50;;
10293;SDS011;5192;50.328;7.610;2022-11-10T09:59:32;8.83;;;3.60;;
10293;SDS011;5192;50.328;7.610;2022-11-10T10:02:11;6.17;;;3.27;;
10293;SDS011;5192;50.328;7.610;2022-11-10T10:07:49;6.87;;;3.40;;
10293;SDS011;5192;50.328;7.610;2022-11-10T10:10:44;7.70;;;3.40;;
10293;SDS011;5192;50.328;7.610;2022-11-10T10:13:45;9.23;;;4.07;;
10293;SDS011;5192;50.328;7.610;2022-11-10T10:16:47;6.43;;;3.30;;
10293;SDS011;5192;50.328;7.610;2022-11-10T10:19:34;7.13;;;3.17;;
10293;SDS011;5192;50.328;7.610;2022-11-10T10:24:50;8.40;;;4.13;;
10293;SDS011;5192;50.328;7.610;2022-11-10T10:27:21;6.97;;;3.37;;
10293;SDS011;5192;50.328;7.610;2022-11-10T10:29:51;8.20;;;3.70;;
10293;SDS011;5192;50.328;7.610;2022-11-10T10:32:18;6.57;;;3.40;;
10293;SDS011;5192;50.328;7.610;2022-11-10T10:34:51;7.43;;;3.53;;
10293;SDS011;5192;50.328;7.610;2022-11-10T10:37:37;8.07;;;3.53;;
10293;SDS011;5192;50.328;7.610;2022-11-10T10:40:23;10.70;;;3.93;;
10293;SDS011;5192;50.328;7.610;2022-11-10T10:42:49;5.93;;;3.60;;
10293;SDS011;5192;50.328;7.610;2022-11-10T10:45:24;5.77;;;3.57;;
10293;SDS011;5192;50.328;7.610;2022-11-10T10:47:54;6.57;;;2.87;;
10293;SDS011;5192;50.328;7.610;2022-11-10T10:56:06;5.93;;;3.30;;
10293;SDS011;5192;50.328;7.610;2022-11-10T10:58:55;4.90;;;2.77;;
10293;SDS011;5192;50.328;7.610;2022-11-10T11:01:32;6.53;;;3.10;;
10293;SDS011;5192;50.328;7.610;2022-11-10T11:04:31;5.47;;;3.37;;
10293;SDS011;5192;50.328;7.610;2022-11-10T11:07:02;5.43;;;3.43;;
10293;SDS011;5192;50.328;7.610;2022-11-10T11:09:45;6.73;;;3.10;;
10293;SDS011;5192;50.328;7.610;2022-11-10T11:17:55;6.23;;;3.50;;
10293;SDS011;5192;50.328;7.610;2022-11-10T11:20:42;5.47;;;2.77;;
10293;SDS011;5192;50.328;7.610;2022-11-10T11:31:55;4.27;;;2.53;;
10293;SDS011;5192;50.328;7.610;2022-11-10T11:37:35;5.47;;;3.43;;
10293;SDS011;5192;50.328;7.610;2022-11-10T11:43:38;8.07;;;3.57;;
10293;SDS011;5192;50.328;7.610;2022-11-10T11:46:48;5.07;;;2.57;;
10293;SDS011;5192;50.328;7.610;2022-11-10T12:01:32;4.10;;;2.10;;
10293;SDS011;5192;50.328;7.610;2022-11-10T12:15:54;5.60;;;2.70;;
10293;SDS011;5192;50.328;7.610;2022-11-10T12:21:29;4.87;;;2.37;;
10293;SDS011;5192;50.328;7.610;2022-11-10T12:27:13;6.00;;;2.37;;
10293;SDS011;5192;50.328;7.610;2022-11-10T12:30:08;6.37;;;2.37;;
10293;SDS011;5192;50.328;7.610;2022-11-10T12:33:07;6.07;;;2.70;;
10293;SDS011;5192;50.328;7.610;2022-11-10T12:36:04;7.87;;;2.70;;
10293;SDS011;5192;50.328;7.610;2022-11-10T12:38:43;5.80;;;2.07;;
10293;SDS011;5192;50.328;7.610;2022-11-10T12:41:22;3.83;;;2.40;;
10293;SDS011;5192;50.328;7.610;2022-11-10T12:46:41;6.50;;;2.30;;
10293;SDS011;5192;50.328;7.610;2022-11-10T12:54:38;4.80;;;2.47;;
10293;SDS011;5192;50.328;7.610;2022-11-10T12:57:27;6.23;;;2.20;;
10293;SDS011;5192;50.328;7.610;2022-11-10T13:02:52;5.03;;;2.40;;
10293;SDS011;5192;50.328;7.610;2022-11-10T13:05:24;5.23;;;2.90;;
10293;SDS011;5192;50.328;7.610;2022-11-10T13:08:22;4.77;;;2.33;;
10293;SDS011;5192;50.328;7.610;2022-11-10T13:13:43;6.63;;;2.60;;
10293;SDS011;5192;50.328;7.610;2022-11-10T13:22:06;9.23;;;2.73;;
10293;SDS011;5192;50.328;7.610;2022-11-10T13:28:02;5.70;;;2.50;;
10293;SDS011;5192;50.328;7.610;2022-11-10T13:31:02;4.97;;;2.27;;
10293;SDS011;5192;50.328;7.610;2022-11-10T13:35:50;5.97;;;2.50;;
10293;SDS011;5192;50.328;7.610;2022-11-10T13:38:32;4.93;;;2.30;;
10293;SDS011;5192;50.328;7.610;2022-11-10T13:43:53;4.97;;;2.20;;
10293;SDS011;5192;50.328;7.610;2022-11-10T13:46:41;5.73;;;2.23;;
10293;SDS011;5192;50.328;7.610;2022-11-10T13:57:28;6.90;;;3.13;;
10293;SDS011;5192;50.328;7.610;2022-11-10T14:00:20;5.67;;;2.17;;
10293;SDS011;5192;50.328;7.610;2022-11-10T14:02:50;9.27;;;2.90;;
10293;SDS011;5192;50.328;7.610;2022-11-10T14:10:34;5.93;;;2.67;;
10293;SDS011;5192;50.328;7.610;2022-11-10T14:13:17;4.83;;;2.50;;
10293;SDS011;5192;50.328;7.610;2022-11-10T14:15:51;5.67;;;2.80;;
10293;SDS011;5192;50.328;7.610;2022-11-10T14:21:26;4.97;;;2.53;;
10293;SDS011;5192;50.328;7.610;2022-11-10T14:24:14;6.20;;;2.60;;
10293;SDS011;5192;50.328;7.610;2022-11-10T14:26:50;7.63;;;2.30;;
10293;SDS011;5192;50.328;7.610;2022-11-10T14:29:37;6.30;;;2.93;;
10293;SDS011;5192;50.328;7.610;2022-11-10T14:32:11;6.93;;;2.67;;
10293;SDS011;5192;50.328;7.610;2022-11-10T14:34:49;6.00;;;2.73;;
10293;SDS011;5192;50.328;7.610;2022-11-10T14:37:20;7.30;;;3.00;;
10293;SDS011;5192;50.328;7.610;2022-11-10T14:40:04;7.87;;;2.70;;
10293;SDS011;5192;50.328;7.610;2022-11-10T14:42:42;7.27;;;2.73;;
10293;SDS011;5192;50.328;7.610;2022-11-10T14:45:25;5.73;;;2.20;;
10293;SDS011;5192;50.328;7.610;2022-11-10T14:47:55;6.67;;;2.50;;
10293;SDS011;5192;50.328;7.610;2022-11-10T14:50:30;6.77;;;2.63;;
10293;SDS011;5192;50.328;7.610;2022-11-10T14:53:17;5.10;;;2.37;;
10293;SDS011;5192;50.328;7.610;2022-11-10T14:55:55;4.97;;;2.47;;
10293;SDS011;5192;50.328;7.610;2022-11-10T14:58:25;8.07;;;3.13;;
10293;SDS011;5192;50.328;7.610;2022-11-10T15:01:03;6.67;;;2.73;;
10293;SDS011;5192;50.328;7.610;2022-11-10T15:03:37;4.43;;;2.40;;
10293;SDS011;5192;50.328;7.610;2022-11-10T15:06:09;7.00;;;2.37;;
10293;SDS011;5192;50.328;7.610;2022-11-10T15:08:35;7.20;;;2.83;;
10293;SDS011;5192;50.328;7.610;2022-11-10T15:11:02;5.73;;;2.80;;
10293;SDS011;5192;50.328;7.610;2022-11-10T15:19:19;8.03;;;2.77;;
10293;SDS011;5192;50.328;7.610;2022-11-10T15:21:51;10.23;;;3.17;;
10293;SDS011;5192;50.328;7.610;2022-11-10T15:24:17;6.23;;;2.70;;
10293;SDS011;5192;50.328;7.610;2022-11-10T15:26:43;9.63;;;2.80;;
10293;SDS011;5192;50.328;7.610;2022-11-10T15:29:16;5.50;;;2.90;;
10293;SDS011;5192;50.328;7.610;2022-11-10T15:31:46;6.30;;;2.63;;
10293;SDS011;5192;50.328;7.610;2022-11-10T15:43:07;8.93;;;3.13;;
10293;SDS011;5192;50.328;7.610;2022-11-10T15:45:56;6.20;;;2.83;;
10293;SDS011;5192;50.328;7.610;2022-11-10T15:48:24;5.43;;;2.60;;
10293;SDS011;5192;50.328;7.610;2022-11-10T15:50:53;6.53;;;2.93;;
10293;SDS011;5192;50.328;7.610;2022-11-10T15:53:26;6.93;;;2.50;;
10293;SDS011;5192;50.328;7.610;2022-11-10T15:56:13;7.53;;;3.17;;
10293;SDS011;5192;50.328;7.610;2022-11-10T15:58:41;6.27;;;2.80;;
10293;SDS011;5192;50.328;7.610;2022-11-10T16:01:12;6.60;;;2.83;;
10293;SDS011;5192;50.328;7.610;2022-11-10T16:03:38;5.77;;;2.80;;
10293;SDS011;5192;50.328;7.610;2022-11-10T16:06:04;6.20;;;3.20;;
10293;SDS011;5192;50.328;7.610;2022-11-10T16:08:32;9.20;;;3.00;;
10293;SDS011;5192;50.328;7.610;2022-11-10T16:10:58;6.77;;;2.80;;
10293;SDS011;5192;50.328;7.610;2022-11-10T16:13:25;8.27;;;3.40;;
10293;SDS011;5192;50.328;7.610;2022-11-10T16:15:58;4.00;;;2.63;;
10293;SDS011;5192;50.328;7.610;2022-11-10T16:18:25;8.13;;;3.17;;
10293;SDS011;5192;50.328;7.610;2022-11-10T16:21:00;10.80;;;3.37;;
10293;SDS011;5192;50.328;7.610;2022-11-10T16:23:26;6.87;;;3.20;;
10293;SDS011;5192;50.328;7.610;2022-11-10T16:25:53;6.83;;;3.07;;
10293;SDS011;5192;50.328;7.610;2022-11-10T16:28:22;7.27;;;3.27;;
10293;SDS011;5192;50.328;7.610;2022-11-10T16:30:52;8.30;;;3.23;;
10293;SDS011;5192;50.328;7.610;2022-11-10T16:33:19;6.93;;;3.17;;
10293;SDS011;5192;50.328;7.610;2022-11-10T16:35:52;7.33;;;3.40;;
10293;SDS011;5192;50.328;7.610;2022-11-10T16:38:23;7.10;;;3.17;;
10293;SDS011;5192;50.328;7.610;2022-11-10T16:40:58;8.37;;;3.63;;
10293;SDS011;5192;50.328;7.610;2022-11-10T16:43:25;9.67;;;3.60;;
10293;SDS011;5192;50.328;7.610;2022-11-10T16:45:52;6.27;;;3.37;;
10293;SDS011;5192;50.328;7.610;2022-11-10T16:48:23;4.93;;;3.23;;
10293;SDS011;5192;50.328;7.610;2022-11-10T16:50:54;6.77;;;3.40;;
10293;SDS011;5192;50.328;7.610;2022-11-10T16:53:23;8.53;;;3.30;;
10293;SDS011;5192;50.328;7.610;2022-11-10T16:55:51;8.20;;;3.23;;
10293;SDS011;5192;50.328;7.610;2022-11-10T16:58:16;8.47;;;3.53;;
10293;SDS011;5192;50.328;7.610;2022-11-10T17:00:45;14.33;;;4.33;;
10293;SDS011;5192;50.328;7.610;2022-11-10T17:03:14;8.47;;;3.33;;
10293;SDS011;5192;50.328;7.610;2022-11-10T17:05:46;6.20;;;3.30;;
10293;SDS011;5192;50.328;7.610;2022-11-10T17:08:15;6.13;;;3.20;;
10293;SDS011;5192;50.328;7.610;2022-11-10T17:10:46;6.23;;;3.97;;
10293;SDS011;5192;50.328;7.610;2022-11-10T17:13:11;8.00;;;4.00;;
10293;SDS011;5192;50.328;7.610;2022-11-10T17:15:38;7.50;;;3.87;;
10293;SDS011;5192;50.328;7.610;2022-11-10T17:18:04;7.03;;;4.03;;
10293;SDS011;5192;50.328;7.610;2022-11-10T17:20:32;11.23;;;4.87;;
10293;SDS011;5192;50.328;7.610;2022-11-10T17:23:04;10.17;;;4.17;;
10293;SDS011;5192;50.328;7.610;2022-11-10T17:25:32;5.10;;;3.70;;